Time;durP1;ratioP1;P1;durP2;ratioP2;P2;SDS_P1;SDS_P2;PMS_P1;PMS_P2;Temp;Humidity;BMP_temperature;BMP_pressure;BME280_temperature;BME280_humidity;BME280_pressure;Samples;Min_cycle;Max_cycle;Signal;HPM_P1;HPM_P2
2022/10/22 00:01:43;;;;;;;1.45;1.30;;;17.30;99.90;;;;;;5011408;28;20483;-87
2022/10/22 00:04:08;;;;;;;1.92;1.10;;;17.20;99.90;;;;;;5010396;28;20503;-87
2022/10/22 00:06:34;;;;;;;2.25;1.27;;;17.30;99.90;;;;;;5011355;28;20604;-88
2022/10/22 00:08:59;;;;;;;1.75;1.30;;;17.20;99.90;;;;;;5011350;28;20056;-87
2022/10/22 00:11:25;;;;;;;1.35;1.20;;;17.30;99.90;;;;;;5026087;28;20029;-88
2022/10/22 00:13:51;;;;;;;1.40;1.17;;;17.30;99.90;;;;;;5011171;28;20041;-88
2022/10/22 00:16:17;;;;;;;2.03;1.15;;;17.30;99.90;;;;;;5011119;28;20044;-87
2022/10/22 00:18:42;;;;;;;1.63;1.35;;;17.20;99.90;;;;;;5011388;28;20045;-87
2022/10/22 00:21:08;;;;;;;1.20;1.02;;;17.30;99.90;;;;;;5011273;28;20511;-86
2022/10/22 00:23:34;;;;;;;1.45;1.20;;;17.30;99.90;;;;;;5011258;28;20026;-87
2022/10/22 00:26:00;;;;;;;1.10;1.05;;;17.10;99.90;;;;;;5026345;28;20073;-87
2022/10/22 00:28:26;;;;;;;1.48;1.35;;;17.10;99.90;;;;;;5011021;28;20116;-87
2022/10/22 00:30:59;;;;;;;1.02;1.00;;;17.10;99.90;;;;;;5010168;28;20491;-87
2022/10/22 00:33:26;;;;;;;2.28;1.13;;;17.10;99.90;;;;;;5014828;28;20096;-87
2022/10/22 00:35:52;;;;;;;1.75;1.05;;;17.20;99.90;;;;;;5015465;28;20026;-87
2022/10/22 00:38:18;;;;;;;1.23;1.10;;;17.10;99.90;;;;;;5030335;28;20034;-87
2022/10/22 00:40:44;;;;;;;1.67;1.10;;;17.10;99.90;;;;;;5015588;28;20026;-86
2022/10/22 00:43:16;;;;;;;1.90;1.10;;;17.10;99.90;;;;;;5014901;28;20030;-87
2022/10/22 00:45:43;;;;;;;1.45;1.02;;;17.00;99.90;;;;;;5014959;28;20104;-87
2022/10/22 00:48:30;;;;;;;2.42;1.27;;;17.00;99.90;;;;;;5014865;28;20081;-87
2022/10/22 00:51:00;;;;;;;0.80;0.80;;;16.90;99.90;;;;;;5014912;28;20049;-86
2022/10/22 00:53:30;;;;;;;1.30;0.95;;;16.70;99.90;;;;;;5002035;28;20491;-86
2022/10/22 00:55:56;;;;;;;1.43;1.27;;;16.70;99.90;;;;;;5014898;28;20034;-86
2022/10/22 00:58:26;;;;;;;1.20;1.00;;;16.70;99.90;;;;;;5029880;28;20525;-86
2022/10/22 01:00:52;;;;;;;1.27;1.17;;;16.70;99.90;;;;;;5014683;28;20033;-86
2022/10/22 01:03:18;;;;;;;1.15;1.05;;;16.70;99.90;;;;;;5014846;28;20022;-86
2022/10/22 01:05:56;;;;;;;2.53;1.00;;;16.60;99.90;;;;;;5014573;28;20018;-87
2022/10/22 01:08:42;;;;;;;1.85;1.15;;;16.70;99.90;;;;;;5014600;28;20033;-87
2022/10/22 01:11:11;;;;;;;2.15;1.17;;;16.60;99.90;;;;;;5001574;28;20026;-87
2022/10/22 01:13:50;;;;;;;1.27;1.17;;;16.50;99.90;;;;;;5014537;28;20105;-87
2022/10/22 01:16:50;;;;;;;1.10;1.00;;;16.40;99.90;;;;;;5029792;28;20030;-86
2022/10/22 01:19:29;;;;;;;1.13;0.98;;;16.40;99.90;;;;;;5033480;28;20030;-87
2022/10/22 01:22:14;;;;;;;0.80;0.80;;;16.40;99.90;;;;;;5029616;28;20026;-87
2022/10/22 01:24:44;;;;;;;1.10;1.00;;;16.40;99.90;;;;;;5029781;28;20077;-86
2022/10/22 01:27:33;;;;;;;1.27;1.00;;;16.30;99.90;;;;;;5014147;28;20068;-88
2022/10/22 01:30:06;;;;;;;2.08;1.00;;;16.20;99.90;;;;;;5014253;28;20026;-87
2022/10/22 01:32:36;;;;;;;1.52;1.13;;;16.20;99.90;;;;;;5013963;28;20076;-87
2022/10/22 01:35:07;;;;;;;1.55;1.25;;;16.20;99.90;;;;;;5014307;28;20097;-87
2022/10/22 01:37:40;;;;;;;1.90;1.20;;;16.00;99.90;;;;;;5029257;28;20116;-87
2022/10/22 01:40:09;;;;;;;1.55;1.10;;;16.00;99.90;;;;;;5014128;28;20112;-87
2022/10/22 01:42:35;;;;;;;2.08;1.00;;;16.10;99.90;;;;;;5013671;28;20101;-87
2022/10/22 01:45:00;;;;;;;2.88;1.17;;;16.20;99.90;;;;;;5013043;28;20100;-87
2022/10/22 01:47:41;;;;;;;1.42;1.05;;;16.00;99.90;;;;;;5014049;28;20049;-87
2022/10/22 01:50:32;;;;;;;1.25;1.00;;;16.00;99.90;;;;;;5005326;28;20030;-86
2022/10/22 01:53:01;;;;;;;2.63;1.00;;;16.00;99.90;;;;;;4940444;29;20170;-86
2022/10/22 01:55:29;;;;;;;2.45;1.40;;;16.00;99.90;;;;;;4953061;29;20067;-86
2022/10/22 01:58:03;;;;;;;1.63;1.00;;;15.80;99.90;;;;;;4936633;29;20102;-86
2022/10/22 02:00:29;;;;;;;1.58;1.10;;;15.80;99.90;;;;;;4924946;29;20035;-86
2022/10/22 02:03:01;;;;;;;1.40;1.20;;;15.70;99.90;;;;;;4951438;29;20157;-86
2022/10/22 02:05:33;;;;;;;0.90;0.90;;;15.70;99.90;;;;;;4940426;29;20028;-86
2022/10/22 02:08:07;;;;;;;1.27;1.15;;;15.70;99.90;;;;;;4945276;29;20028;-86
2022/10/22 02:10:36;;;;;;;1.40;1.20;;;15.60;99.90;;;;;;4946566;29;20051;-86
2022/10/22 02:13:03;;;;;;;1.30;0.95;;;15.70;99.90;;;;;;4942279;29;20031;-86
2022/10/22 02:15:34;;;;;;;0.98;0.88;;;15.70;99.90;;;;;;4949761;29;20063;-86
2022/10/22 02:18:00;;;;;;;0.98;0.85;;;15.70;99.90;;;;;;4933856;29;20114;-86
2022/10/22 02:20:31;;;;;;;1.20;1.10;;;15.70;99.90;;;;;;4946582;29;20028;-87
2022/10/22 02:22:58;;;;;;;2.10;1.58;;;15.60;99.90;;;;;;4944429;29;20134;-87
2022/10/22 02:25:28;;;;;;;1.30;0.98;;;15.60;99.90;;;;;;4939761;29;20061;-86
2022/10/22 02:28:01;;;;;;;1.85;1.23;;;15.50;99.90;;;;;;4941464;29;20066;-86
2022/10/22 02:30:27;;;;;;;1.90;0.93;;;15.40;99.90;;;;;;4999746;28;20515;-86
2022/10/22 02:33:00;;;;;;;1.60;1.40;;;15.40;99.90;;;;;;5013242;28;20026;-87
2022/10/22 02:35:27;;;;;;;0.90;0.90;;;15.50;99.90;;;;;;5031804;28;20573;-86
2022/10/22 02:37:55;;;;;;;1.30;1.20;;;15.40;99.90;;;;;;5028394;28;20038;-87
2022/10/22 02:40:22;;;;;;;1.35;1.25;;;15.40;99.90;;;;;;5012838;28;20100;-87
2022/10/22 02:42:49;;;;;;;1.73;1.05;;;15.40;99.90;;;;;;5012579;28;20021;-87
2022/10/22 02:45:17;;;;;;;1.20;1.08;;;15.40;99.90;;;;;;5028034;28;20030;-87
2022/10/22 02:47:43;;;;;;;1.35;0.98;;;15.40;99.90;;;;;;5012855;28;20032;-87
2022/10/22 02:50:09;;;;;;;1.95;1.20;;;15.30;99.90;;;;;;5012906;28;20117;-87
2022/10/22 02:52:34;;;;;;;1.45;0.95;;;15.20;99.90;;;;;;5012802;28;20026;-87
2022/10/22 02:55:00;;;;;;;1.70;1.27;;;15.20;99.90;;;;;;5012427;28;20053;-87
2022/10/22 02:57:26;;;;;;;1.90;0.98;;;15.20;99.90;;;;;;5012635;28;20022;-87
2022/10/22 02:59:52;;;;;;;0.73;0.73;;;15.20;99.90;;;;;;5012885;28;20045;-87
2022/10/22 03:02:17;;;;;;;2.28;1.10;;;15.10;99.90;;;;;;5012511;28;20514;-87
2022/10/22 03:04:43;;;;;;;1.00;0.90;;;15.20;99.90;;;;;;5011577;28;20018;-87
2022/10/22 03:07:09;;;;;;;1.92;0.98;;;15.30;99.90;;;;;;5012445;28;20028;-87
2022/10/22 03:09:35;;;;;;;1.05;1.00;;;15.20;99.90;;;;;;5027499;28;20103;-87
2022/10/22 03:12:00;;;;;;;1.52;1.17;;;15.00;99.90;;;;;;5012152;28;20022;-86
2022/10/22 03:14:26;;;;;;;1.33;0.93;;;15.00;99.90;;;;;;5012235;28;20794;-86
2022/10/22 03:16:52;;;;;;;1.60;1.10;;;15.10;99.90;;;;;;5012404;28;20022;-86
2022/10/22 03:19:17;;;;;;;0.90;0.90;;;15.10;99.90;;;;;;5012515;28;20032;-86
2022/10/22 03:21:49;;;;;;;1.00;0.90;;;15.10;99.90;;;;;;5015846;28;20466;-86
2022/10/22 03:24:37;;;;;;;1.73;1.10;;;15.10;99.90;;;;;;5027261;28;20128;-86
2022/10/22 03:27:03;;;;;;;1.23;1.13;;;14.90;99.90;;;;;;5011856;28;20025;-86
2022/10/22 03:29:33;;;;;;;1.00;1.00;;;15.00;99.90;;;;;;5011970;28;20036;-86
2022/10/22 03:31:58;;;;;;;1.10;0.90;;;15.00;99.90;;;;;;5011858;28;20025;-86
2022/10/22 03:34:24;;;;;;;2.17;1.40;;;15.00;99.90;;;;;;5010841;28;20033;-86
2022/10/22 03:36:50;;;;;;;1.88;1.38;;;15.10;99.90;;;;;;5011726;28;20033;-86
2022/10/22 03:39:18;;;;;;;1.13;1.05;;;14.80;99.90;;;;;;5011980;28;20053;-86
2022/10/22 03:41:45;;;;;;;1.08;1.00;;;14.70;99.90;;;;;;5011694;28;20014;-86
2022/10/22 03:44:11;;;;;;;1.17;0.98;;;14.80;99.90;;;;;;5011943;28;20026;-87
2022/10/22 03:46:37;;;;;;;1.63;1.35;;;14.80;99.90;;;;;;5011863;28;20026;-87
2022/10/22 03:49:03;;;;;;;1.15;1.13;;;14.80;99.90;;;;;;5011685;28;20038;-87
2022/10/22 03:51:28;;;;;;;1.05;0.98;;;14.70;99.90;;;;;;5011225;28;20022;-87
2022/10/22 03:53:54;;;;;;;1.15;1.00;;;14.70;99.90;;;;;;5011944;28;20034;-87
2022/10/22 03:56:21;;;;;;;1.52;1.10;;;14.70;99.90;;;;;;5026402;28;20057;-87
2022/10/22 03:58:46;;;;;;;1.52;1.10;;;14.70;99.90;;;;;;5011568;28;20564;-87
2022/10/22 04:01:13;;;;;;;1.08;1.08;;;14.70;99.90;;;;;;5026788;28;20030;-86
2022/10/22 04:03:39;;;;;;;1.38;1.10;;;14.40;99.90;;;;;;5026572;28;20037;-87
2022/10/22 04:06:11;;;;;;;1.83;1.40;;;14.30;99.90;;;;;;5011076;28;20502;-87
2022/10/22 04:08:42;;;;;;;4.45;1.90;;;14.40;99.90;;;;;;5011547;28;20030;-87
2022/10/22 04:11:08;;;;;;;1.35;1.10;;;14.40;99.90;;;;;;4998603;28;20074;-87
2022/10/22 04:13:34;;;;;;;1.20;1.10;;;14.30;99.90;;;;;;5011392;28;20041;-87
2022/10/22 04:16:16;;;;;;;1.23;1.02;;;14.30;99.90;;;;;;5005541;28;20022;-87
2022/10/22 04:18:42;;;;;;;1.25;1.15;;;14.40;99.90;;;;;;5026630;28;20139;-87
2022/10/22 04:21:09;;;;;;;0.95;0.95;;;14.40;99.90;;;;;;5011059;28;20036;-86
2022/10/22 04:23:36;;;;;;;3.00;1.30;;;14.40;99.90;;;;;;5026211;28;20034;-87
2022/10/22 04:26:05;;;;;;;1.65;1.08;;;14.30;99.90;;;;;;5011245;28;20052;-86
2022/10/22 04:28:31;;;;;;;2.63;1.02;;;14.30;99.90;;;;;;5011077;28;20053;-86
2022/10/22 04:30:57;;;;;;;1.20;1.10;;;14.40;99.90;;;;;;5011287;28;20045;-86
2022/10/22 04:33:22;;;;;;;1.23;1.00;;;14.30;99.90;;;;;;5011184;28;20069;-86
2022/10/22 04:35:48;;;;;;;1.17;1.02;;;14.40;99.90;;;;;;5011201;28;20559;-87
2022/10/22 04:38:14;;;;;;;1.00;0.90;;;14.40;99.90;;;;;;5010941;28;20111;-86
2022/10/22 04:40:41;;;;;;;3.10;1.05;;;14.30;99.90;;;;;;5011559;28;20103;-86
2022/10/22 04:43:06;;;;;;;1.25;1.00;;;14.20;99.90;;;;;;5010602;28;20080;-87
2022/10/22 04:45:33;;;;;;;1.20;1.10;;;14.00;99.90;;;;;;5011038;28;20022;-86
2022/10/22 04:47:59;;;;;;;1.20;1.10;;;14.00;99.90;;;;;;5011062;28;20022;-86
2022/10/22 04:50:25;;;;;;;1.00;0.95;;;14.10;99.90;;;;;;5010833;28;20033;-86
2022/10/22 04:52:51;;;;;;;2.58;0.95;;;14.10;99.90;;;;;;5011283;28;20061;-86
2022/10/22 04:55:17;;;;;;;1.75;1.10;;;14.20;99.90;;;;;;5011277;28;20025;-86
2022/10/22 04:57:42;;;;;;;1.15;1.00;;;14.20;99.90;;;;;;5009536;28;20415;-86
2022/10/22 05:00:09;;;;;;;2.22;1.42;;;14.20;99.90;;;;;;5010842;28;20076;-86
2022/10/22 05:02:34;;;;;;;1.08;0.98;;;14.30;99.90;;;;;;5010970;28;20030;-87
2022/10/22 05:05:01;;;;;;;1.85;0.90;;;14.20;99.90;;;;;;5010538;28;20571;-87
2022/10/22 05:07:26;;;;;;;1.30;1.20;;;14.20;99.90;;;;;;5010947;28;20072;-87
2022/10/22 05:09:52;;;;;;;1.30;1.20;;;14.20;99.90;;;;;;5010996;28;20026;-86
2022/10/22 05:12:18;;;;;;;1.35;0.90;;;14.20;99.90;;;;;;5010536;28;20034;-86
2022/10/22 05:14:44;;;;;;;2.25;1.00;;;14.30;99.90;;;;;;5010942;28;20561;-86
2022/10/22 05:17:09;;;;;;;1.27;1.17;;;14.30;99.90;;;;;;5025693;28;20048;-86
2022/10/22 05:19:36;;;;;;;1.92;1.20;;;14.30;99.90;;;;;;5027989;28;20026;-86
2022/10/22 05:22:03;;;;;;;1.33;1.08;;;14.20;99.90;;;;;;5014335;28;20041;-86
2022/10/22 05:24:31;;;;;;;1.63;1.52;;;14.30;99.90;;;;;;5014437;28;20053;-87
2022/10/22 05:26:58;;;;;;;0.95;0.88;;;14.20;99.90;;;;;;5029143;28;20033;-84
2022/10/22 05:29:24;;;;;;;1.75;0.93;;;14.20;99.90;;;;;;5014481;28;20034;-86
2022/10/22 05:31:50;;;;;;;1.70;0.98;;;14.10;99.90;;;;;;5014098;28;20053;-86
2022/10/22 05:34:17;;;;;;;1.00;0.90;;;14.00;99.90;;;;;;5014218;28;20033;-86
2022/10/22 05:36:42;;;;;;;1.20;1.10;;;14.10;99.90;;;;;;5014223;28;20026;-86
2022/10/22 05:39:08;;;;;;;1.80;1.10;;;14.10;99.90;;;;;;5014285;28;20021;-87
2022/10/22 05:41:35;;;;;;;2.25;1.10;;;14.00;99.90;;;;;;5029110;28;20045;-86
2022/10/22 05:44:01;;;;;;;1.10;1.00;;;14.10;99.90;;;;;;5014060;28;20072;-86
2022/10/22 05:46:29;;;;;;;2.58;1.00;;;14.30;99.90;;;;;;5013988;28;20025;-86
2022/10/22 05:49:02;;;;;;;1.40;1.10;;;14.30;99.90;;;;;;5013987;28;20034;-86
2022/10/22 05:51:29;;;;;;;1.90;1.10;;;14.30;99.90;;;;;;5013734;28;20026;-87
2022/10/22 05:54:00;;;;;;;1.45;1.00;;;14.30;99.90;;;;;;5013824;28;20492;-87
2022/10/22 05:56:27;;;;;;;1.02;0.88;;;14.20;99.90;;;;;;5014058;28;20048;-86
2022/10/22 05:58:53;;;;;;;1.10;1.00;;;14.20;99.90;;;;;;5013928;28;20128;-87
2022/10/22 06:01:22;;;;;;;1.33;1.08;;;14.10;99.90;;;;;;5013688;28;20093;-87
2022/10/22 06:03:48;;;;;;;2.42;1.48;;;14.20;99.90;;;;;;5013265;28;20053;-87
2022/10/22 06:06:21;;;;;;;1.30;1.10;;;14.20;99.90;;;;;;5013731;28;20026;-87
2022/10/22 06:08:49;;;;;;;1.50;1.08;;;14.20;99.90;;;;;;5028954;28;20022;-88
2022/10/22 06:11:17;;;;;;;1.80;1.27;;;14.20;99.90;;;;;;5028378;28;20049;-87
2022/10/22 06:13:44;;;;;;;1.63;1.27;;;14.00;99.90;;;;;;5013310;28;20109;-87
2022/10/22 06:16:09;;;;;;;1.40;1.30;;;14.10;99.90;;;;;;5012148;28;20549;-88
2022/10/22 06:18:35;;;;;;;1.23;1.13;;;14.10;99.90;;;;;;5013354;28;20057;-86
2022/10/22 06:21:09;;;;;;;0.80;0.80;;;13.90;99.90;;;;;;5028736;28;20032;-87
2022/10/22 06:23:36;;;;;;;1.33;1.20;;;13.90;99.90;;;;;;5028312;28;20549;-87
2022/10/22 06:26:03;;;;;;;1.75;1.65;;;13.70;99.90;;;;;;5013218;28;20042;-87
2022/10/22 06:28:30;;;;;;;1.15;1.05;;;13.80;99.90;;;;;;5013143;28;20511;-87
2022/10/22 06:31:00;;;;;;;1.67;1.20;;;14.00;99.90;;;;;;5022831;28;20037;-86
2022/10/22 06:33:27;;;;;;;1.10;1.00;;;14.00;99.90;;;;;;5013442;28;20038;-87
2022/10/22 06:35:53;;;;;;;1.30;1.20;;;14.00;99.90;;;;;;5013103;28;20026;-87
2022/10/22 06:38:18;;;;;;;2.25;1.27;;;14.00;99.90;;;;;;5013354;28;20034;-86
2022/10/22 06:40:50;;;;;;;2.17;1.00;;;13.90;99.90;;;;;;5012979;28;20029;-87
2022/10/22 06:43:15;;;;;;;1.98;1.27;;;13.90;99.90;;;;;;5012910;28;20022;-88
2022/10/22 06:45:41;;;;;;;1.10;0.90;;;13.90;99.90;;;;;;5012807;28;20032;-87
2022/10/22 06:48:07;;;;;;;1.58;1.20;;;14.00;99.90;;;;;;5013115;28;20036;-88
2022/10/22 06:50:33;;;;;;;1.17;0.98;;;13.90;99.90;;;;;;5012874;28;20026;-86
2022/10/22 06:52:59;;;;;;;1.75;1.35;;;13.90;99.90;;;;;;5012743;28;20088;-86
2022/10/22 06:55:25;;;;;;;1.63;1.20;;;13.90;99.90;;;;;;5012728;28;20092;-87
2022/10/22 06:57:50;;;;;;;0.90;0.90;;;13.80;99.90;;;;;;5012531;28;20029;-87
2022/10/22 07:00:16;;;;;;;1.77;1.15;;;13.80;99.90;;;;;;5011405;28;20018;-86
2022/10/22 07:02:42;;;;;;;1.40;1.10;;;13.90;99.90;;;;;;5027206;28;20566;-87
2022/10/22 07:05:08;;;;;;;2.05;1.45;;;13.90;99.90;;;;;;5027682;28;20507;-87
2022/10/22 07:07:34;;;;;;;1.42;1.13;;;14.00;99.90;;;;;;5012361;28;20526;-87
2022/10/22 07:09:59;;;;;;;1.38;1.00;;;14.10;99.90;;;;;;5012643;28;20022;-87
2022/10/22 07:12:25;;;;;;;2.05;1.20;;;14.20;99.90;;;;;;5015999;28;20410;-86
2022/10/22 07:14:51;;;;;;;1.65;1.05;;;14.80;99.90;;;;;;5023186;28;20017;-86
2022/10/22 07:17:16;;;;;;;1.20;1.10;;;14.50;99.90;;;;;;5012213;28;20056;-87
2022/10/22 07:19:42;;;;;;;1.20;1.10;;;14.50;99.90;;;;;;5019491;28;20699;-87
2022/10/22 07:22:08;;;;;;;1.42;1.30;;;14.70;99.90;;;;;;5012218;28;20468;-87
2022/10/22 07:24:33;;;;;;;1.27;1.13;;;15.10;99.90;;;;;;5023671;28;20044;-86
2022/10/22 07:26:59;;;;;;;2.35;1.17;;;15.40;99.90;;;;;;5011173;28;20079;-86
2022/10/22 07:29:25;;;;;;;1.10;1.00;;;15.10;99.90;;;;;;5010995;28;20435;-86
2022/10/22 07:31:51;;;;;;;2.42;1.80;;;15.00;99.90;;;;;;5008422;28;20037;-86
2022/10/22 07:34:16;;;;;;;1.52;1.27;;;15.00;99.90;;;;;;5011547;28;20025;-86
2022/10/22 07:36:42;;;;;;;1.85;1.50;;;15.00;99.90;;;;;;5010886;28;20567;-86
2022/10/22 07:39:08;;;;;;;1.35;1.25;;;15.10;99.90;;;;;;5011120;28;20026;-86
2022/10/22 07:41:33;;;;;;;1.55;1.23;;;15.10;99.90;;;;;;5010621;28;20480;-86
2022/10/22 07:43:59;;;;;;;1.40;1.27;;;15.30;99.90;;;;;;5023183;28;20399;-86
2022/10/22 07:46:26;;;;;;;1.92;1.50;;;15.40;99.90;;;;;;5025513;28;20084;-85
2022/10/22 07:48:51;;;;;;;1.20;1.08;;;15.50;99.90;;;;;;5025947;28;20589;-85
2022/10/22 07:51:17;;;;;;;1.50;1.40;;;16.00;99.90;;;;;;5017519;28;20069;-85
2022/10/22 07:53:43;;;;;;;2.35;1.73;;;16.00;99.90;;;;;;5031805;28;20120;-85
2022/10/22 07:56:09;;;;;;;1.92;1.38;;;15.80;99.90;;;;;;5015729;28;20427;-85
2022/10/22 07:58:35;;;;;;;1.40;1.20;;;15.60;99.90;;;;;;5010909;28;20084;-86
2022/10/22 08:01:04;;;;;;;1.50;1.40;;;15.80;99.90;;;;;;5015407;28;20022;-86
2022/10/22 08:03:32;;;;;;;1.67;1.50;;;15.90;99.90;;;;;;5014037;28;20014;-86
2022/10/22 08:05:58;;;;;;;2.33;1.50;;;16.00;99.90;;;;;;5010149;28;20057;-86
2022/10/22 08:08:25;;;;;;;2.38;1.58;;;16.70;99.90;;;;;;5010908;28;20024;-86
2022/10/22 08:10:52;;;;;;;2.95;1.67;;;16.60;99.90;;;;;;5010459;28;20112;-86
2022/10/22 08:13:18;;;;;;;1.70;1.60;;;17.30;99.90;;;;;;5011320;28;20018;-86
2022/10/22 08:15:45;;;;;;;2.95;1.77;;;18.00;99.90;;;;;;5025982;28;20029;-87
2022/10/22 08:18:12;;;;;;;1.88;1.77;;;18.60;99.90;;;;;;5010938;28;20076;-87
2022/10/22 08:20:38;;;;;;;1.75;1.55;;;20.50;99.90;;;;;;5011048;28;20026;-86
2022/10/22 08:23:04;;;;;;;1.98;1.55;;;23.80;99.90;;;;;;5011033;28;20029;-86
2022/10/22 08:25:30;;;;;;;1.67;1.42;;;26.00;99.90;;;;;;5010798;28;20046;-87
2022/10/22 08:27:56;;;;;;;1.95;1.73;;;26.80;98.20;;;;;;5010784;28;20536;-86
2022/10/22 08:30:22;;;;;;;1.77;1.60;;;27.90;96.50;;;;;;5010267;28;20380;-87
2022/10/22 08:32:47;;;;;;;1.30;1.20;;;28.30;95.80;;;;;;5004256;28;20030;-87
2022/10/22 08:35:13;;;;;;;1.52;1.42;;;29.10;93.60;;;;;;5010798;28;20517;-88
2022/10/22 08:37:39;;;;;;;2.58;1.80;;;27.20;95.60;;;;;;5011086;28;20442;-88
2022/10/22 08:40:05;;;;;;;1.98;1.63;;;27.20;95.90;;;;;;5025863;28;20403;-88
2022/10/22 08:42:34;;;;;;;2.50;1.33;;;24.40;98.20;;;;;;5010151;28;20014;-88
2022/10/22 08:45:17;;;;;;;2.55;2.08;;;22.20;99.90;;;;;;5011040;28;20029;-88
2022/10/22 08:47:48;;;;;;;1.80;1.42;;;20.40;99.90;;;;;;5025473;28;20037;-88
2022/10/22 08:50:21;;;;;;;2.72;1.67;;;19.90;99.90;;;;;;5010934;28;20030;-89
2022/10/22 08:52:54;;;;;;;3.03;1.60;;;19.90;99.90;;;;;;5011719;28;20026;-89
2022/10/22 08:55:22;;;;;;;1.92;1.35;;;19.70;99.90;;;;;;5030178;28;20061;-90
2022/10/22 08:58:02;;;;;;;2.05;1.40;;;19.60;99.90;;;;;;5014055;28;20506;-90
2022/10/22 09:00:40;;;;;;;2.17;1.33;;;19.30;99.90;;;;;;5015191;28;20025;-91
2022/10/22 09:03:27;;;;;;;1.45;1.25;;;19.60;99.90;;;;;;5002923;28;20022;-90
2022/10/22 09:06:22;;;;;;;2.88;1.40;;;19.60;99.90;;;;;;5015303;28;20105;-90
2022/10/22 09:08:49;;;;;;;3.80;1.50;;;21.10;99.90;;;;;;5011953;28;20042;-91
2022/10/22 09:11:32;;;;;;;2.45;1.60;;;22.20;99.90;;;;;;5014017;28;20034;-90
2022/10/22 09:13:59;;;;;;;1.88;1.23;;;23.00;99.90;;;;;;5029513;28;20049;-90
2022/10/22 09:16:30;;;;;;;1.65;1.55;;;23.60;99.90;;;;;;5007882;28;20114;-91
2022/10/22 09:19:18;;;;;;;2.05;1.58;;;22.80;99.90;;;;;;5029439;28;20022;-89
2022/10/22 09:21:56;;;;;;;1.52;1.40;;;21.60;99.90;;;;;;5014004;28;20096;-90
2022/10/22 09:24:46;;;;;;;4.30;1.90;;;21.30;99.90;;;;;;5014205;28;20034;-90
2022/10/22 09:27:25;;;;;;;2.55;1.40;;;20.50;99.90;;;;;;5014344;28;20029;-89
2022/10/22 09:29:50;;;;;;;4.13;1.70;;;20.60;99.90;;;;;;5029704;28;20033;-89
2022/10/22 09:32:17;;;;;;;2.13;1.65;;;20.60;99.90;;;;;;5006802;28;20045;-90
2022/10/22 09:34:44;;;;;;;2.08;1.60;;;20.70;99.90;;;;;;5014454;28;20025;-90
2022/10/22 09:37:10;;;;;;;2.50;1.52;;;20.70;99.90;;;;;;5014160;28;20014;-90
2022/10/22 09:39:43;;;;;;;2.00;1.65;;;20.70;99.90;;;;;;5013190;28;20030;-91
2022/10/22 09:42:13;;;;;;;1.92;1.67;;;20.50;99.90;;;;;;5015036;28;20053;-91
2022/10/22 09:44:39;;;;;;;1.60;1.48;;;20.30;99.90;;;;;;5014756;28;20018;-92
2022/10/22 09:47:31;;;;;;;2.63;2.15;;;20.60;99.90;;;;;;5014014;28;20498;-91
2022/10/22 09:50:08;;;;;;;4.47;2.22;;;20.60;99.90;;;;;;5012932;28;20042;-92
2022/10/22 09:52:34;;;;;;;3.25;2.10;;;20.60;99.90;;;;;;5014525;28;20563;-92
2022/10/22 09:55:18;;;;;;;2.60;1.90;;;20.80;99.90;;;;;;5016900;28;20061;-92
2022/10/22 09:57:52;;;;;;;3.05;1.98;;;20.90;99.90;;;;;;5013577;28;20073;-92
2022/10/22 10:00:19;;;;;;;4.15;1.98;;;21.00;99.90;;;;;;5006488;28;20014;-92
2022/10/22 10:02:44;;;;;;;2.08;1.77;;;20.90;99.90;;;;;;5014575;28;20084;-92
2022/10/22 10:05:19;;;;;;;2.92;1.85;;;21.00;99.90;;;;;;5029321;28;20026;-92
2022/10/22 10:07:47;;;;;;;3.15;1.90;;;21.00;99.90;;;;;;5006569;28;20068;-92
2022/10/22 10:10:29;;;;;;;1.75;1.65;;;20.90;99.90;;;;;;5034653;28;20084;-93
2022/10/22 10:13:26;;;;;;;2.72;1.83;;;21.10;99.90;;;;;;5002911;28;20049;-93
2022/10/22 10:16:12;;;;;;;3.08;2.00;;;21.20;99.90;;;;;;5024097;28;20040;-92
2022/10/22 10:19:05;;;;;;;3.75;1.77;;;21.40;99.90;;;;;;5012579;28;20044;-92
2022/10/22 10:21:56;;;;;;;2.47;1.60;;;21.40;99.90;;;;;;5014358;28;20052;-93
2022/10/22 10:25:12;;;;;;;3.00;1.70;;;21.30;99.90;;;;;;5003684;28;20046;-92
2022/10/22 10:27:59;;;;;;;2.72;1.67;;;21.40;99.90;;;;;;4962983;28;20043;-92
2022/10/22 10:30:25;;;;;;;4.13;1.92;;;21.50;99.90;;;;;;4956883;28;20238;-93
2022/10/22 10:33:18;;;;;;;2.83;2.00;;;21.60;99.90;;;;;;4973876;28;20428;-92
2022/10/22 10:36:08;;;;;;;3.65;2.22;;;21.70;99.90;;;;;;4956653;28;20037;-92
2022/10/22 10:38:50;;;;;;;3.35;2.20;;;21.60;99.90;;;;;;4956225;28;20077;-93
2022/10/22 10:41:28;;;;;;;2.08;1.80;;;21.70;99.90;;;;;;4973238;28;20028;-93
2022/10/22 10:44:22;;;;;;;4.43;2.13;;;21.70;99.90;;;;;;4972951;28;20031;-92
2022/10/22 10:46:59;;;;;;;2.63;1.75;;;21.90;99.90;;;;;;4961657;28;20038;-92
2022/10/22 10:49:28;;;;;;;3.78;1.88;;;21.90;99.90;;;;;;4975826;28;20061;-93
2022/10/22 10:52:13;;;;;;;2.63;1.80;;;22.00;99.90;;;;;;4956860;28;20041;-92
2022/10/22 10:55:01;;;;;;;3.33;2.17;;;22.10;99.90;;;;;;4972572;28;20070;-92
2022/10/22 10:58:09;;;;;;;2.35;2.13;;;22.30;99.90;;;;;;4972917;28;20054;-93
2022/10/22 11:00:46;;;;;;;2.95;1.85;;;22.30;99.90;;;;;;4973313;28;20035;-94
2022/10/22 11:03:47;;;;;;;2.50;1.80;;;22.20;99.90;;;;;;4994249;28;20034;-95
2022/10/22 11:06:16;;;;;;;2.67;1.60;;;22.30;99.90;;;;;;5013537;28;20091;-95
2022/10/22 11:08:53;;;;;;;2.50;1.52;;;22.40;99.90;;;;;;5029315;28;20045;-95
2022/10/22 11:11:33;;;;;;;4.30;2.15;;;22.30;99.90;;;;;;5013638;28;20041;-94
2022/10/22 11:14:15;;;;;;;1.63;1.42;;;22.40;99.90;;;;;;5014469;28;20064;-93
2022/10/22 11:16:48;;;;;;;2.95;1.50;;;22.50;99.90;;;;;;5013671;28;20038;-94
2022/10/22 11:19:31;;;;;;;3.85;1.92;;;22.70;99.90;;;;;;5016321;28;20038;-93
2022/10/22 11:22:10;;;;;;;4.22;2.10;;;22.70;99.90;;;;;;5013011;28;20033;-91
2022/10/22 11:24:59;;;;;;;3.65;2.80;;;22.80;99.90;;;;;;5013630;28;20041;-92
2022/10/22 11:27:36;;;;;;;7.00;2.50;;;22.60;99.90;;;;;;5000554;28;20021;-91
2022/10/22 11:30:05;;;;;;;8.77;2.70;;;22.60;99.90;;;;;;5013188;28;20026;-92
2022/10/22 11:32:32;;;;;;;5.13;2.80;;;22.80;99.90;;;;;;5006366;28;20084;-91
2022/10/22 11:35:03;;;;;;;4.50;2.85;;;22.60;99.90;;;;;;5012646;28;20090;-91
2022/10/22 11:37:33;;;;;;;4.50;2.80;;;22.60;99.90;;;;;;5027967;28;20025;-91
2022/10/22 11:40:28;;;;;;;7.90;3.70;;;22.70;99.90;;;;;;5013038;28;20018;-92
2022/10/22 11:43:16;;;;;;;6.88;3.15;;;22.60;99.90;;;;;;5012552;28;20112;-93
2022/10/22 11:45:42;;;;;;;9.05;3.20;;;22.50;99.90;;;;;;5005408;28;20038;-92
2022/10/22 11:48:09;;;;;;;6.25;3.05;;;22.30;99.90;;;;;;5013447;28;20068;-93
2022/10/22 11:50:45;;;;;;;6.78;3.65;;;22.30;99.90;;;;;;5012320;28;20113;-92
2022/10/22 11:53:11;;;;;;;11.40;4.10;;;22.30;99.90;;;;;;5012699;28;20026;-91
2022/10/22 11:55:49;;;;;;;11.20;4.22;;;22.20;99.90;;;;;;5028071;28;20030;-92
2022/10/22 11:58:33;;;;;;;4.90;3.00;;;22.20;99.90;;;;;;5012422;28;20014;-93
2022/10/22 12:01:08;;;;;;;5.97;2.90;;;22.20;99.90;;;;;;5015806;28;20030;-92
2022/10/22 12:03:33;;;;;;;6.85;3.70;;;22.20;99.90;;;;;;5012561;28;20014;-93
2022/10/22 12:06:11;;;;;;;6.45;2.72;;;22.20;99.90;;;;;;5013044;28;20037;-92
2022/10/22 12:08:48;;;;;;;4.88;3.10;;;22.20;99.90;;;;;;5008314;28;20026;-92
2022/10/22 12:11:33;;;;;;;5.47;3.00;;;22.20;99.90;;;;;;5010530;28;20065;-93
2022/10/22 12:14:13;;;;;;;5.68;2.90;;;22.20;99.90;;;;;;5012867;28;20050;-93
2022/10/22 12:16:44;;;;;;;4.28;2.80;;;22.40;99.90;;;;;;5013225;28;20088;-91
2022/10/22 12:19:10;;;;;;;3.50;2.42;;;22.40;99.90;;;;;;5027446;28;20030;-93
2022/10/22 12:21:38;;;;;;;5.20;2.45;;;22.70;99.90;;;;;;5011378;28;20088;-92
2022/10/22 12:24:06;;;;;;;6.00;2.88;;;22.60;99.90;;;;;;5012073;28;20050;-92
2022/10/22 12:26:35;;;;;;;5.40;2.90;;;22.60;99.90;;;;;;5011366;28;20030;-93
2022/10/22 12:29:06;;;;;;;6.07;3.42;;;22.70;99.90;;;;;;4998945;28;20026;-92
2022/10/22 12:31:40;;;;;;;5.53;3.50;;;22.70;99.90;;;;;;5027068;28;20026;-92
2022/10/22 12:34:06;;;;;;;5.35;3.20;;;22.80;99.90;;;;;;5011875;28;20038;-93
2022/10/22 12:36:34;;;;;;;4.75;2.78;;;22.90;99.90;;;;;;5027407;28;20487;-91
2022/10/22 12:39:10;;;;;;;4.47;3.20;;;23.00;99.90;;;;;;5027445;28;20034;-92
2022/10/22 12:41:38;;;;;;;3.72;2.55;;;23.00;99.90;;;;;;5011390;28;20057;-93
2022/10/22 12:44:04;;;;;;;5.47;2.90;;;22.90;99.90;;;;;;5011598;28;20503;-93
2022/10/22 12:46:33;;;;;;;5.70;3.20;;;23.00;99.90;;;;;;4999489;28;20030;-93
2022/10/22 12:49:03;;;;;;;4.22;2.85;;;22.90;99.90;;;;;;5007760;28;20172;-93
2022/10/22 12:51:29;;;;;;;9.32;3.20;;;23.20;99.90;;;;;;5012297;28;20037;-93
2022/10/22 12:53:58;;;;;;;7.05;2.90;;;23.10;99.90;;;;;;5027061;28;20026;-92
2022/10/22 12:56:42;;;;;;;6.03;2.58;;;23.00;99.90;;;;;;5012505;28;20030;-95
2022/10/22 12:59:25;;;;;;;6.63;2.90;;;23.00;99.90;;;;;;5012509;28;20164;-93
2022/10/22 13:01:52;;;;;;;5.53;3.08;;;22.80;99.90;;;;;;5012826;28;20503;-93
2022/10/22 13:04:22;;;;;;;7.53;3.20;;;23.10;99.90;;;;;;5012294;28;20120;-94
2022/10/22 13:06:50;;;;;;;5.05;3.13;;;23.10;99.90;;;;;;5012568;28;20038;-94